Time;durP1;ratioP1;P1;durP2;ratioP2;P2;SDS_P1;SDS_P2;PMS_P1;PMS_P2;Temp;Humidity;BMP_temperature;BMP_pressure;BME280_temperature;BME280_humidity;BME280_pressure;Samples;Min_cycle;Max_cycle;Signal;HPM_P1;HPM_P2
2022/12/21 00:04:38;;;;;;;22.33;19.80;;;;;9.40;98800.00;;;;16734770;28;20226;-48
2022/12/21 00:12:42;;;;;;;24.67;21.73;;;;;9.60;98791.00;;;;16717247;28;20248;-47
2022/12/21 00:20:44;;;;;;;28.10;23.13;;;;;9.60;98794.00;;;;16713811;28;20225;-48
2022/12/21 00:28:49;;;;;;;24.57;19.50;;;;;9.10;98797.00;;;;16714889;28;20216;-47
2022/12/21 00:36:52;;;;;;;23.07;20.57;;;;;9.00;98793.00;;;;16708980;28;20229;-46
2022/12/21 00:44:56;;;;;;;26.70;20.43;;;;;8.90;98803.00;;;;16745526;28;20930;-47
2022/12/21 00:53:00;;;;;;;20.50;18.33;;;;;9.00;98788.00;;;;16727925;28;20221;-47
2022/12/21 01:01:09;;;;;;;20.90;18.50;;;;;8.80;98781.00;;;;16721139;28;20727;-48
2022/12/21 01:09:11;;;;;;;21.57;19.30;;;;;8.90;98796.00;;;;16743785;28;20264;-48
2022/12/21 01:17:15;;;;;;;20.23;18.03;;;;;8.80;98791.00;;;;16740971;28;20222;-48
2022/12/21 01:25:18;;;;;;;19.37;17.33;;;;;9.00;98793.00;;;;16726256;28;20217;-47
2022/12/21 01:33:23;;;;;;;23.60;17.80;;;;;9.10;98796.00;;;;16741321;28;20218;-48
2022/12/21 01:41:27;;;;;;;21.70;18.20;;;;;8.80;98793.00;;;;16719354;28;20226;-47
2022/12/21 01:49:32;;;;;;;20.53;17.40;;;;;8.90;98792.00;;;;16735284;28;20257;-47
2022/12/21 01:57:35;;;;;;;19.57;17.57;;;;;8.90;98781.00;;;;16738981;28;20311;-48
2022/12/21 02:05:43;;;;;;;18.60;16.73;;;;;9.10;98771.00;;;;16708342;28;20294;-48
2022/12/21 02:13:45;;;;;;;18.10;15.20;;;;;9.20;98759.00;;;;16739188;28;20300;-49
2022/12/21 02:21:53;;;;;;;17.63;15.80;;;;;9.30;98753.00;;;;16746307;28;20312;-47
2022/12/21 02:30:13;;;;;;;16.77;14.80;;;;;9.20;98748.00;;;;16736492;28;20221;-47
2022/12/21 02:38:30;;;;;;;18.30;16.40;;;;;9.20;98744.00;;;;16745880;28;20253;-48
2022/12/21 02:46:50;;;;;;;19.50;15.93;;;;;9.00;98744.00;;;;16760650;28;20206;-47
2022/12/21 02:54:58;;;;;;;18.83;16.93;;;;;9.10;98739.00;;;;16741782;28;20303;-46
2022/12/21 03:12:00;;;;;;;17.63;15.83;;;;;9.40;98728.00;;;;16540911;28;20230;-46
2022/12/21 03:20:08;;;;;;;19.13;16.47;;;;;9.50;98730.00;;;;16539125;28;20228;-47
2022/12/21 03:28:14;;;;;;;17.20;15.50;;;;;9.50;98726.00;;;;16534280;28;20884;-47
2022/12/21 03:36:19;;;;;;;15.60;14.20;;;;;9.60;98727.00;;;;16532591;28;20631;-48
2022/12/21 03:44:27;;;;;;;17.20;15.50;;;;;9.80;98716.00;;;;16717321;28;20224;-49
2022/12/21 03:52:35;;;;;;;18.47;14.10;;;;;10.10;98708.00;;;;16715078;28;20222;-47
2022/12/21 04:00:44;;;;;;;15.77;14.23;;;;;10.20;98696.00;;;;16715363;28;20222;-47
2022/12/21 04:08:48;;;;;;;12.87;11.67;;;;;10.20;98692.00;;;;16735264;28;20213;-47
2022/12/21 04:16:52;;;;;;;15.87;14.30;;;;;10.20;98683.00;;;;16746690;28;20726;-47
2022/12/21 04:33:16;;;;;;;18.33;11.30;;;;;10.60;98680.00;;;;16722031;28;20263;-47
2022/12/21 04:41:19;;;;;;;12.33;10.97;;;;;10.60;98688.00;;;;16733130;28;20228;-46
2022/12/21 04:49:23;;;;;;;9.83;8.70;;;;;10.80;98681.00;;;;16741868;28;20291;-47
2022/12/21 04:57:25;;;;;;;10.27;9.27;;;;;11.00;98673.00;;;;16739505;28;20294;-48
2022/12/21 05:05:30;;;;;;;9.57;8.67;;;;;11.10;98669.00;;;;16735954;28;20302;-48
2022/12/21 05:13:33;;;;;;;10.40;8.50;;;;;11.00;98667.00;;;;16742768;28;20222;-48
2022/12/21 05:21:37;;;;;;;10.23;8.20;;;;;11.00;98663.00;;;;16726708;28;20794;-48
2022/12/21 05:29:40;;;;;;;14.23;8.47;;;;;11.10;98665.00;;;;16747185;28;20225;-48
2022/12/21 05:37:44;;;;;;;10.67;9.63;;;;;11.00;98663.00;;;;16727471;28;20870;-47
2022/12/21 05:45:46;;;;;;;10.93;9.83;;;;;11.00;98663.00;;;;16677851;28;20218;-47
2022/12/21 05:53:50;;;;;;;11.23;10.17;;;;;11.00;98672.00;;;;16697986;28;20348;-47
2022/12/21 06:01:52;;;;;;;11.07;9.80;;;;;11.00;98670.00;;;;16708928;28;20308;-47
2022/12/21 06:09:56;;;;;;;12.40;11.20;;;;;11.00;98668.00;;;;16686726;28;20219;-48
2022/12/21 06:17:59;;;;;;;12.77;9.27;;;;;11.20;98664.00;;;;16680229;28;20301;-46
2022/12/21 06:26:04;;;;;;;10.90;9.40;;;;;11.10;98665.00;;;;16653823;28;20633;-48
2022/12/21 06:34:07;;;;;;;13.90;9.87;;;;;11.20;98669.00;;;;16610256;28;20259;-48
2022/12/21 06:42:11;;;;;;;12.13;9.90;;;;;11.10;98664.00;;;;16642792;28;20221;-48
2022/12/21 06:50:13;;;;;;;13.10;8.70;;;;;11.10;98668.00;;;;16668879;28;20228;-47
2022/12/21 06:58:17;;;;;;;14.20;8.73;;;;;11.20;98672.00;;;;16641823;28;20227;-48
2022/12/21 07:06:21;;;;;;;9.37;8.33;;;;;11.30;98668.00;;;;16701463;28;20249;-48
2022/12/21 07:14:25;;;;;;;11.47;9.10;;;;;11.50;98678.00;;;;16748631;28;20254;-48
2022/12/21 07:22:28;;;;;;;10.10;7.60;;;;;11.60;98673.00;;;;16723364;28;20229;-48
2022/12/21 07:30:32;;;;;;;9.00;6.83;;;;;11.70;98675.00;;;;16736406;28;20806;-47
2022/12/21 07:38:36;;;;;;;13.73;7.00;;;;;11.90;98679.00;;;;16725257;28;20241;-48
2022/12/21 07:46:40;;;;;;;8.20;6.13;;;;;12.00;98688.00;;;;16745365;28;20206;-48
2022/12/21 07:54:46;;;;;;;14.03;7.20;;;;;12.30;98681.00;;;;16714320;28;20316;-48
2022/12/21 08:02:51;;;;;;;6.53;5.80;;;;;12.30;98693.00;;;;16742872;28;20239;-48
2022/12/21 08:10:53;;;;;;;7.63;6.40;;;;;12.10;98691.00;;;;16738289;28;20822;-48
2022/12/21 08:18:58;;;;;;;10.90;8.20;;;;;12.10;98702.00;;;;16739849;28;20221;-47
2022/12/21 08:27:00;;;;;;;16.13;7.57;;;;;12.00;98706.00;;;;16728817;28;20569;-48
2022/12/21 08:35:04;;;;;;;11.73;8.23;;;;;12.00;98715.00;;;;16724661;28;20700;-47
2022/12/21 08:43:07;;;;;;;9.97;8.00;;;;;12.00;98712.00;;;;16720028;28;20586;-48
2022/12/21 08:51:10;;;;;;;12.70;8.67;;;;;12.00;98718.00;;;;16733362;28;20308;-48
2022/12/21 08:59:13;;;;;;;9.17;8.17;;;;;12.00;98729.00;;;;16732307;28;20241;-47
2022/12/21 09:07:17;;;;;;;11.03;7.70;;;;;12.20;98726.00;;;;16739295;28;20205;-47
2022/12/21 09:15:20;;;;;;;8.33;7.53;;;;;12.10;98720.00;;;;16749876;28;20806;-47
2022/12/21 09:23:24;;;;;;;21.33;9.97;;;;;12.20;98717.00;;;;16730060;28;20308;-48
2022/12/21 09:31:27;;;;;;;9.57;8.57;;;;;12.10;98707.00;;;;16743566;28;20206;-48
2022/12/21 09:39:30;;;;;;;11.10;7.73;;;;;12.20;98731.00;;;;16746549;28;20265;-48
2022/12/21 09:47:36;;;;;;;14.23;9.67;;;;;12.30;98718.00;;;;16729619;28;20206;-48
2022/12/21 09:55:46;;;;;;;8.43;7.17;;;;;12.40;98727.00;;;;16725508;28;20224;-48
2022/12/21 10:04:12;;;;;;;8.63;7.20;;;;;12.40;98734.00;;;;16728544;28;20221;-47
2022/12/21 10:12:23;;;;;;;10.50;8.17;;;;;12.40;98725.00;;;;16738517;28;20222;-50
2022/12/21 10:20:33;;;;;;;9.80;7.13;;;;;12.50;98725.00;;;;16728881;28;20223;-49
2022/12/21 10:28:45;;;;;;;18.60;9.70;;;;;12.70;98730.00;;;;16740328;28;20235;-48
2022/12/21 10:36:48;;;;;;;4.43;3.87;;;;;13.20;98718.00;;;;16743109;28;20294;-47
2022/12/21 10:44:53;;;;;;;11.50;8.40;;;;;13.80;98709.00;;;;16762282;28;20721;-48
2022/12/21 10:52:56;;;;;;;11.67;7.27;;;;;13.80;98717.00;;;;16743649;28;20613;-47
2022/12/21 11:01:03;;;;;;;5.73;4.03;;;;;14.50;98708.00;;;;16750695;28;20258;-48
2022/12/21 11:09:29;;;;;;;4.70;4.10;;;;;14.50;98709.00;;;;16755729;28;20235;-45
2022/12/21 11:17:34;;;;;;;5.37;3.60;;;;;14.40;98703.00;;;;16740234;28;20232;-46
2022/12/21 11:25:36;;;;;;;6.13;3.63;;;;;14.80;98689.00;;;;16734969;28;20224;-47
2022/12/21 11:33:44;;;;;;;3.10;2.83;;;;;15.90;98676.00;;;;16736407;28;20220;-46
2022/12/21 11:41:52;;;;;;;4.80;3.73;;;;;15.20;98682.00;;;;16745494;28;20853;-48
2022/12/21 11:50:25;;;;;;;2.70;2.50;;;;;15.70;98681.00;;;;16706445;28;20338;-47
2022/12/21 11:58:42;;;;;;;4.50;4.07;;;;;16.10;98670.00;;;;16714076;28;20702;-49
2022/12/21 12:07:18;;;;;;;6.10;4.07;;;;;17.50;98656.00;;;;16734079;28;20572;-48
2022/12/21 12:15:31;;;;;;;2.30;1.97;;;;;16.80;98623.00;;;;16728063;28;20309;-48
2022/12/21 12:23:42;;;;;;;2.00;1.90;;;;;17.00;98634.00;;;;16698102;28;20296;-48
2022/12/21 12:31:58;;;;;;;2.50;2.30;;;;;18.00;98640.00;;;;16708894;28;21017;-49
2022/12/21 12:40:09;;;;;;;3.17;1.83;;;;;18.00;98623.00;;;;16685036;28;20225;-48
2022/12/21 12:48:18;;;;;;;1.60;1.50;;;;;18.50;98623.00;;;;16694556;28;20198;-47
2022/12/21 12:56:24;;;;;;;1.90;1.67;;;;;18.90;98620.00;;;;16704845;28;20228;-47
2022/12/21 13:04:42;;;;;;;2.57;1.43;;;;;18.40;98626.00;;;;16697338;28;20222;-47
2022/12/21 13:12:50;;;;;;;2.70;2.50;;;;;17.40;98630.00;;;;16642019;28;20218;-48
2022/12/21 13:20:57;;;;;;;2.13;1.90;;;;;17.10;98628.00;;;;16645507;28;20242;-47
2022/12/21 13:29:05;;;;;;;3.47;2.40;;;;;17.00;98631.00;;;;16640928;28;20222;-46
2022/12/21 13:37:13;;;;;;;3.10;2.80;;;;;16.90;98628.00;;;;16638669;28;20222;-48
2022/12/21 13:45:23;;;;;;;5.80;4.20;;;;;17.10;98632.00;;;;16617212;28;20234;-47
2022/12/21 13:53:33;;;;;;;2.50;2.30;;;;;16.60;98636.00;;;;16646987;28;20224;-47
2022/12/21 14:01:44;;;;;;;2.33;2.13;;;;;16.60;98619.00;;;;16639249;28;20229;-48
2022/12/21 14:09:55;;;;;;;4.53;1.80;;;;;16.20;98617.00;;;;16715597;28;20305;-48
2022/12/21 14:18:00;;;;;;;2.37;2.17;;;;;16.50;98593.00;;;;16713387;28;20589;-47
2022/12/21 14:26:02;;;;;;;5.10;4.43;;;;;16.30;98606.00;;;;16703591;28;20242;-47
2022/12/21 14:34:09;;;;;;;3.37;3.07;;;;;15.50;98597.00;;;;16695576;28;20210;-48
2022/12/21 14:42:35;;;;;;;7.27;6.60;;;;;16.20;98604.00;;;;16677004;28;20226;-48
2022/12/21 14:51:00;;;;;;;2.80;2.60;;;;;14.10;98622.00;;;;16749202;28;20225;-47
2022/12/21 14:59:05;;;;;;;5.07;4.60;;;;;13.20;98639.00;;;;16729699;28;20225;-45
2022/12/21 15:07:19;;;;;;;54.73;39.13;;;;;12.40;98650.00;;;;16712066;28;20201;-49
2022/12/21 15:15:30;;;;;;;11.70;10.20;;;;;12.30;98651.00;;;;16733993;28;20314;-47
2022/12/21 15:23:36;;;;;;;18.37;13.10;;;;;12.00;98654.00;;;;16706407;28;20252;-48
2022/12/21 15:31:41;;;;;;;27.23;13.40;;;;;11.50;98660.00;;;;16709058;28;20215;-48
2022/12/21 15:39:45;;;;;;;31.07;17.47;;;;;11.30;98660.00;;;;16743595;28;20226;-47
2022/12/21 15:47:51;;;;;;;37.40;27.60;;;;;12.50;98650.00;;;;16723075;28;20677;-48
2022/12/21 15:55:57;;;;;;;5.53;4.30;;;;;13.60;98642.00;;;;16700018;28;20816;-46
2022/12/21 16:04:05;;;;;;;4.40;4.00;;;;;14.20;98622.00;;;;16708939;28;20663;-47
2022/12/21 16:12:21;;;;;;;3.57;3.27;;;;;14.50;98634.00;;;;16695381;28;20213;-46
2022/12/21 16:20:24;;;;;;;5.50;5.00;;;;;12.80;98653.00;;;;16727862;28;20221;-47
2022/12/21 16:28:30;;;;;;;5.73;5.20;;;;;12.20;98665.00;;;;16747426;28;20190;-46
2022/12/21 16:36:33;;;;;;;8.07;5.70;;;;;11.80;98681.00;;;;16740543;28;20863;-49
2022/12/21 16:44:40;;;;;;;9.30;8.50;;;;;12.60;98673.00;;;;16716134;28;20224;-47
2022/12/21 16:52:46;;;;;;;6.87;6.17;;;;;11.80;98681.00;;;;16719971;28;20301;-45
2022/12/21 17:00:52;;;;;;;9.50;6.27;;;;;11.90;98676.00;;;;16738601;28;20237;-46
2022/12/21 17:08:55;;;;;;;50.30;35.80;;;;;13.20;98642.00;;;;16742009;28;20231;-45
2022/12/21 17:17:12;;;;;;;9.07;7.93;;;;;13.50;98649.00;;;;16740890;28;20225;-47
2022/12/21 17:25:16;;;;;;;11.57;10.57;;;;;13.00;98644.00;;;;16707791;28;20213;-48
2022/12/21 17:33:22;;;;;;;8.30;7.07;;;;;13.40;98652.00;;;;16741634;28;20829;-46
2022/12/21 17:41:25;;;;;;;10.57;8.87;;;;;13.40;98646.00;;;;16760081;28;20746;-46
2022/12/21 17:49:29;;;;;;;17.37;11.63;;;;;13.50;98645.00;;;;16745198;28;20221;-48
2022/12/21 17:57:31;;;;;;;7.83;5.67;;;;;13.30;98648.00;;;;16731240;28;20817;-48
2022/12/21 18:05:35;;;;;;;6.40;5.83;;;;;13.30;98637.00;;;;16764969;28;20233;-48
2022/12/21 18:13:37;;;;;;;7.07;6.37;;;;;13.40;98631.00;;;;16768011;28;20209;-48
2022/12/21 18:21:41;;;;;;;7.77;6.20;;;;;13.40;98627.00;;;;16732089;28;20593;-49
2022/12/21 18:29:44;;;;;;;6.93;6.33;;;;;13.40;98613.00;;;;16735945;28;20217;-48
2022/12/21 18:37:48;;;;;;;7.87;7.13;;;;;13.30;98620.00;;;;16725620;28;20224;-48
2022/12/21 18:45:52;;;;;;;7.17;6.10;;;;;13.30;98615.00;;;;16737073;28;20225;-48
2022/12/21 18:53:57;;;;;;;8.60;7.00;;;;;12.90;98607.00;;;;16740101;28;20221;-48
2022/12/21 19:02:00;;;;;;;13.13;10.07;;;;;13.00;98597.00;;;;16745198;28;20304;-47
2022/12/21 19:10:06;;;;;;;15.77;10.60;;;;;13.20;98586.00;;;;16697533;28;20295;-48
2022/12/21 19:18:10;;;;;;;16.17;13.63;;;;;13.40;98589.00;;;;16660874;28;20309;-48
2022/12/21 19:26:13;;;;;;;8.93;7.50;;;;;13.00;98587.00;;;;16662099;28;20305;-48
2022/12/21 19:34:16;;;;;;;7.80;7.00;;;;;13.10;98583.00;;;;16679769;28;20219;-48
2022/12/21 19:42:22;;;;;;;8.90;8.00;;;;;12.90;98574.00;;;;16681668;28;20343;-47
2022/12/21 19:50:25;;;;;;;9.10;8.20;;;;;12.90;98567.00;;;;16675286;28;20766;-48
2022/12/21 19:58:31;;;;;;;8.77;7.87;;;;;12.90;98565.00;;;;16657632;28;20214;-48
2022/12/21 20:06:34;;;;;;;10.90;9.77;;;;;12.60;98570.00;;;;16675619;28;20209;-48
2022/12/21 20:14:41;;;;;;;7.93;7.13;;;;;12.80;98570.00;;;;16728646;28;20212;-48
2022/12/21 20:22:43;;;;;;;10.00;9.00;;;;;12.70;98558.00;;;;16702133;28;20284;-48
2022/12/21 20:30:49;;;;;;;10.27;8.47;;;;;12.70;98555.00;;;;16687463;28;20216;-48
2022/12/21 20:38:52;;;;;;;8.40;7.47;;;;;12.60;98536.00;;;;16685887;28;20746;-47
2022/12/21 20:46:56;;;;;;;9.70;8.73;;;;;12.80;98523.00;;;;16673584;28;20308;-48
2022/12/21 21:03:18;;;;;;;7.43;6.73;;;;;12.90;98520.00;;;;16659292;28;20239;-48
2022/12/21 21:19:42;;;;;;;6.47;5.50;;;;;12.90;98509.00;;;;16618172;28;20698;-49
2022/12/21 21:27:45;;;;;;;6.80;6.10;;;;;12.80;98504.00;;;;16614810;28;20198;-49
2022/12/21 21:35:51;;;;;;;5.70;5.20;;;;;13.00;98511.00;;;;16612318;28;20230;-48
2022/12/21 21:43:54;;;;;;;5.77;4.83;;;;;13.10;98519.00;;;;16600538;28;20241;-49
2022/12/21 21:51:58;;;;;;;4.93;4.50;;;;;13.20;98496.00;;;;16624714;28;20608;-49
2022/12/21 22:00:01;;;;;;;7.70;5.40;;;;;13.00;98497.00;;;;16633108;28;20814;-48
2022/12/21 22:08:15;;;;;;;6.10;5.57;;;;;12.70;98489.00;;;;16694372;28;20696;-47
2022/12/21 22:16:22;;;;;;;6.23;5.60;;;;;12.70;98486.00;;;;16687323;28;20848;-47
2022/12/21 22:32:47;;;;;;;6.70;5.60;;;;;12.80;98471.00;;;;16697020;28;20225;-49
2022/12/21 22:49:13;;;;;;;6.60;5.93;;;;;12.60;98450.00;;;;16730320;28;20263;-47
2022/12/21 22:57:17;;;;;;;5.20;4.70;;;;;12.50;98449.00;;;;16722607;28;20201;-47
2022/12/21 23:05:21;;;;;;;5.53;5.03;;;;;12.50;98432.00;;;;16730969;28;20225;-48
2022/12/21 23:30:12;;;;;;;5.43;4.27;;;;;12.60;98386.00;;;;16737306;28;20249;-48
